createdAt,value
2022-10-19T00:01:00.689Z,20.55
2022-10-19T00:03:27.618Z,20.58
2022-10-19T00:05:54.407Z,20.42
2022-10-19T00:08:21.244Z,20.56
2022-10-19T00:10:48.239Z,20.46
2022-10-19T00:13:14.955Z,20.31
2022-10-19T00:15:42.055Z,20.66
2022-10-19T00:18:09.272Z,20.18
2022-10-19T00:20:37.090Z,20.54
2022-10-19T00:23:04.342Z,20.50
2022-10-19T00:25:31.118Z,20.30
2022-10-19T00:27:57.898Z,20.43
2022-10-19T00:30:24.720Z,20.55
2022-10-19T00:32:51.481Z,20.47
2022-10-19T00:35:18.170Z,20.45
2022-10-19T00:37:44.999Z,20.57
2022-10-19T00:40:11.884Z,20.47
2022-10-19T00:42:38.644Z,20.59
2022-10-19T00:45:13.101Z,20.64
2022-10-19T00:47:40.438Z,20.68
2022-10-19T00:50:07.684Z,20.55
2022-10-19T00:52:34.860Z,20.42
2022-10-19T00:55:02.777Z,20.63
2022-10-19T00:57:31.356Z,20.72
2022-10-19T01:00:00.507Z,20.53
2022-10-19T01:02:27.293Z,20.66
2022-10-19T01:04:54.241Z,20.88
2022-10-19T01:07:21.368Z,20.85
2022-10-19T01:09:48.364Z,20.74
2022-10-19T01:12:52.916Z,20.77
2022-10-19T01:15:32.656Z,20.88
2022-10-19T01:18:09.651Z,20.69
2022-10-19T01:21:10.625Z,20.55
2022-10-19T01:23:55.970Z,20.73
2022-10-19T01:26:45.590Z,20.75
2022-10-19T01:29:34.888Z,20.56
2022-10-19T01:32:07.616Z,20.28
2022-10-19T01:34:43.290Z,20.07
2022-10-19T01:37:38.034Z,19.58
2022-10-19T01:40:08.456Z,18.47
2022-10-19T01:43:09.019Z,18.66
2022-10-19T01:45:52.774Z,18.53
2022-10-19T01:48:25.073Z,18.43
2022-10-19T01:51:00.598Z,18.58
2022-10-19T01:53:30.566Z,18.60
2022-10-19T01:55:57.817Z,18.30
2022-10-19T01:58:31.832Z,18.67
2022-10-19T02:01:03.046Z,18.83
2022-10-19T02:03:29.960Z,18.96
2022-10-19T02:05:57.279Z,19.11
2022-10-19T02:08:42.139Z,19.22
2022-10-19T02:11:09.279Z,19.44
2022-10-19T02:13:37.645Z,19.46
2022-10-19T02:16:08.773Z,19.64
2022-10-19T02:18:42.782Z,19.60
2022-10-19T02:21:10.653Z,19.61
2022-10-19T02:23:37.537Z,19.88
2022-10-19T02:26:04.924Z,19.89
2022-10-19T02:28:32.133Z,19.91
2022-10-19T02:31:00.409Z,20.07
2022-10-19T02:33:28.908Z,20.08
2022-10-19T02:35:57.051Z,20.11
2022-10-19T02:38:24.914Z,19.99
2022-10-19T02:41:04.581Z,20.07
2022-10-19T02:43:34.664Z,20.19
2022-10-19T02:46:06.418Z,20.26
2022-10-19T02:48:35.352Z,20.25
2022-10-19T02:51:02.380Z,20.30
2022-10-19T02:53:29.520Z,20.30
2022-10-19T02:55:56.235Z,20.23
2022-10-19T02:58:23.039Z,20.37
2022-10-19T03:00:49.966Z,20.18
2022-10-19T03:03:16.785Z,20.45
2022-10-19T03:05:43.469Z,20.56
2022-10-19T03:08:10.336Z,20.63
2022-10-19T03:10:37.159Z,20.57
2022-10-19T03:13:03.850Z,20.71
2022-10-19T03:15:30.698Z,20.69
2022-10-19T03:17:57.575Z,20.62
2022-10-19T03:20:24.366Z,20.79
2022-10-19T03:25:18.115Z,20.76
2022-10-19T03:27:44.803Z,20.89
2022-10-19T03:30:11.737Z,20.91
2022-10-19T03:32:38.686Z,20.92
2022-10-19T03:35:05.892Z,20.85
2022-10-19T03:37:32.951Z,20.83
2022-10-19T03:40:00.014Z,20.89
2022-10-19T03:42:26.739Z,20.96
2022-10-19T03:44:53.586Z,20.75
2022-10-19T03:47:20.301Z,20.95
2022-10-19T03:49:46.998Z,20.85
2022-10-19T03:52:13.837Z,20.91
2022-10-19T03:54:40.576Z,20.78
2022-10-19T03:57:07.363Z,20.92
2022-10-19T03:59:34.216Z,20.94
2022-10-19T04:02:01.082Z,20.96
2022-10-19T04:04:27.817Z,20.95
2022-10-19T04:06:54.642Z,21.04
2022-10-19T04:09:22.726Z,21.03
2022-10-19T04:11:50.443Z,20.95
2022-10-19T04:14:31.609Z,20.59
2022-10-19T04:17:00.644Z,20.47
2022-10-19T04:19:27.381Z,19.74
2022-10-19T04:21:54.067Z,19.17
2022-10-19T04:24:20.934Z,19.26
2022-10-19T04:26:50.546Z,19.12
2022-10-19T04:29:23.735Z,18.67
2022-10-19T04:31:53.700Z,18.63
2022-10-19T04:34:20.545Z,18.80
2022-10-19T04:36:47.265Z,18.74
2022-10-19T04:39:14.239Z,18.74
2022-10-19T04:41:40.957Z,18.93
2022-10-19T04:44:07.728Z,18.97
2022-10-19T04:46:35.040Z,18.60
2022-10-19T04:49:04.880Z,18.12
2022-10-19T04:51:31.656Z,18.06
2022-10-19T04:53:59.752Z,18.05
2022-10-19T04:56:27.572Z,17.80
2022-10-19T04:58:56.684Z,17.53
2022-10-19T05:01:24.426Z,17.51
2022-10-19T05:03:59.356Z,17.74
2022-10-19T05:06:26.778Z,17.39
2022-10-19T05:08:53.881Z,17.28
2022-10-19T05:11:21.194Z,17.34
2022-10-19T05:13:49.034Z,17.39
2022-10-19T05:16:19.119Z,17.22
2022-10-19T05:18:56.924Z,17.14
2022-10-19T05:21:23.671Z,17.17
2022-10-19T05:23:55.250Z,17.20
2022-10-19T05:26:24.292Z,17.16
2022-10-19T05:28:56.905Z,17.28
2022-10-19T05:31:26.785Z,17.27
2022-10-19T05:33:56.385Z,17.33
2022-10-19T05:36:27.678Z,17.31
2022-10-19T05:38:58.399Z,17.26
2022-10-19T05:41:26.473Z,17.19
2022-10-19T05:43:55.737Z,17.13
2022-10-19T05:46:23.537Z,17.13
2022-10-19T05:48:50.583Z,17.06
2022-10-19T05:51:20.350Z,17.05
2022-10-19T05:53:47.420Z,17.08
2022-10-19T05:56:17.491Z,17.11
2022-10-19T05:58:44.139Z,16.98
2022-10-19T06:01:11.132Z,17.34
2022-10-19T06:03:38.460Z,17.46
2022-10-19T06:06:06.817Z,17.46
2022-10-19T06:08:34.583Z,17.53
2022-10-19T06:11:07.211Z,17.57
2022-10-19T06:13:34.166Z,17.59
2022-10-19T06:16:00.948Z,17.69
2022-10-19T06:18:28.133Z,17.62
2022-10-19T06:20:55.052Z,17.54
2022-10-19T06:23:21.982Z,17.34
2022-10-19T06:25:48.793Z,17.29
2022-10-19T06:28:15.565Z,17.16
2022-10-19T06:30:42.331Z,17.19
2022-10-19T06:33:09.337Z,16.76
2022-10-19T06:35:36.246Z,16.50
2022-10-19T06:38:02.933Z,16.47
2022-10-19T06:40:29.796Z,16.34
2022-10-19T06:42:56.806Z,16.16
2022-10-19T06:45:23.509Z,16.10
2022-10-19T06:47:50.347Z,16.08
2022-10-19T06:50:17.184Z,16.18
2022-10-19T06:52:43.941Z,16.29
2022-10-19T06:55:10.766Z,16.30
2022-10-19T06:57:37.704Z,16.33
2022-10-19T07:00:08.327Z,16.33
2022-10-19T07:02:35.207Z,16.28
2022-10-19T07:05:07.034Z,16.28
2022-10-19T07:07:34.394Z,16.33
2022-10-19T07:10:01.814Z,16.21
2022-10-19T07:12:28.514Z,16.25
2022-10-19T07:14:56.261Z,16.16
2022-10-19T07:17:23.191Z,16.15
2022-10-19T07:19:50.022Z,16.01
2022-10-19T07:22:21.227Z,15.92
2022-10-19T07:24:52.439Z,15.78
2022-10-19T07:27:19.200Z,15.53
2022-10-19T07:29:45.906Z,15.34
2022-10-19T07:32:12.790Z,15.15
2022-10-19T07:34:39.471Z,14.99
2022-10-19T07:37:06.214Z,14.94
2022-10-19T07:39:33.083Z,14.85
2022-10-19T07:41:59.796Z,14.96
2022-10-19T07:44:26.896Z,15.03
2022-10-19T07:46:53.717Z,15.02
2022-10-19T07:49:20.855Z,15.06
2022-10-19T07:51:47.623Z,15.11
2022-10-19T07:54:14.567Z,15.20
2022-10-19T07:56:41.703Z,15.20
2022-10-19T07:59:09.767Z,15.26
2022-10-19T08:01:41.557Z,15.27
2022-10-19T08:06:55.509Z,15.31
2022-10-19T08:09:50.791Z,15.36
2022-10-19T08:12:14.609Z,15.37
2022-10-19T08:14:42.063Z,15.35
2022-10-19T08:17:12.090Z,15.39
2022-10-19T08:19:43.507Z,15.28
2022-10-19T08:22:10.970Z,15.43
2022-10-19T08:24:38.109Z,15.30
2022-10-19T08:27:05.280Z,15.50
2022-10-19T08:29:32.258Z,15.58
2022-10-19T08:31:59.262Z,15.55
2022-10-19T08:34:26.127Z,15.52
2022-10-19T08:36:52.896Z,15.53
2022-10-19T08:39:19.826Z,15.55
2022-10-19T08:44:32.180Z,15.71
2022-10-19T08:47:36.515Z,15.78
2022-10-19T08:50:14.686Z,15.83
2022-10-19T08:52:43.412Z,15.86
2022-10-19T08:55:28.591Z,15.98
2022-10-19T08:58:21.286Z,16.06
2022-10-19T09:01:01.226Z,16.15
2022-10-19T09:03:55.742Z,16.11
2022-10-19T09:06:29.568Z,16.12
2022-10-19T09:09:00.040Z,16.16
2022-10-19T09:11:34.598Z,16.15
2022-10-19T09:14:11.510Z,16.19
2022-10-19T09:16:38.383Z,16.21
2022-10-19T09:19:23.063Z,16.23
2022-10-19T09:21:58.720Z,16.28
2022-10-19T09:24:36.916Z,16.28
2022-10-19T09:27:05.643Z,16.33
2022-10-19T09:29:37.365Z,16.33
2022-10-19T09:32:12.360Z,16.35
2022-10-19T09:34:45.350Z,16.35
2022-10-19T09:37:21.170Z,16.39
2022-10-19T09:39:54.903Z,16.42
2022-10-19T09:42:29.256Z,16.46
2022-10-19T09:44:57.064Z,16.39
2022-10-19T09:47:38.629Z,16.40
2022-10-19T09:50:23.130Z,16.38
2022-10-19T09:52:52.528Z,16.53
2022-10-19T09:55:38.053Z,16.68
2022-10-19T09:58:13.956Z,16.89
2022-10-19T10:00:54.595Z,16.86
2022-10-19T10:03:40.782Z,17.00
2022-10-19T10:06:10.431Z,17.07
2022-10-19T10:08:45.017Z,17.06
2022-10-19T10:11:15.187Z,17.12
2022-10-19T10:13:48.512Z,17.17
2022-10-19T10:16:18.861Z,17.26
2022-10-19T10:18:59.385Z,17.41
2022-10-19T10:21:35.834Z,17.56
2022-10-19T10:24:12.971Z,17.58
2022-10-19T10:26:45.429Z,17.59
2022-10-19T10:29:36.505Z,17.44
2022-10-19T10:32:18.335Z,17.42
2022-10-19T10:34:52.205Z,17.38
2022-10-19T10:37:39.579Z,17.52
2022-10-19T10:40:23.268Z,17.66
2022-10-19T10:42:53.675Z,17.79
2022-10-19T10:45:23.649Z,17.65
2022-10-19T10:47:50.825Z,17.27
2022-10-19T10:50:24.237Z,17.33
2022-10-19T10:53:23.632Z,17.22
2022-10-19T10:55:56.370Z,17.12
2022-10-19T10:58:43.372Z,17.09
2022-10-19T11:01:26.833Z,17.15
2022-10-19T11:04:11.270Z,17.68
2022-10-19T11:06:44.836Z,18.41
2022-10-19T11:09:26.145Z,18.62
2022-10-19T11:11:56.260Z,19.55
2022-10-19T11:15:00.923Z,21.74
2022-10-19T11:17:33.412Z,22.99
2022-10-19T11:20:00.542Z,22.80
2022-10-19T11:22:54.831Z,23.26
2022-10-19T11:25:21.581Z,22.97
2022-10-19T11:28:16.036Z,22.65
2022-10-19T11:31:20.987Z,21.79
2022-10-19T11:34:42.311Z,21.88
2022-10-19T11:37:20.796Z,21.43
2022-10-19T11:39:50.353Z,20.83
2022-10-19T11:42:54.740Z,20.44
2022-10-19T11:45:52.353Z,19.89
2022-10-19T11:48:54.158Z,19.95
2022-10-19T11:52:07.074Z,20.93
2022-10-19T11:54:55.183Z,20.84
2022-10-19T11:57:24.259Z,20.48
2022-10-19T12:00:15.277Z,20.38
2022-10-19T12:03:25.445Z,20.62
2022-10-19T12:06:13.775Z,21.43
2022-10-19T12:08:55.378Z,20.92
2022-10-19T12:11:47.867Z,20.46
2022-10-19T12:14:21.256Z,20.48
2022-10-19T12:16:53.827Z,20.46
2022-10-19T12:19:32.935Z,20.07
2022-10-19T12:22:02.733Z,19.91
2022-10-19T12:24:30.603Z,20.03
2022-10-19T12:26:59.503Z,19.86
2022-10-19T12:29:30.406Z,19.79
2022-10-19T12:32:00.145Z,19.62
2022-10-19T12:34:39.148Z,19.32
2022-10-19T12:37:21.054Z,19.13
2022-10-19T12:40:14.194Z,19.15
2022-10-19T12:43:02.086Z,19.56
2022-10-19T12:45:35.289Z,19.65
2022-10-19T12:48:14.617Z,19.80
2022-10-19T12:50:50.396Z,20.60
2022-10-19T12:53:28.373Z,21.49
2022-10-19T12:56:08.571Z,21.25
2022-10-19T12:58:47.726Z,20.76
2022-10-19T13:01:36.074Z,20.69
2022-10-19T13:04:16.611Z,20.61
2022-10-19T13:06:46.719Z,20.54
2022-10-19T13:09:37.357Z,20.76
2022-10-19T13:12:19.658Z,20.95
2022-10-19T13:14:51.413Z,20.92
2022-10-19T13:17:50.697Z,20.91
2022-10-19T13:20:17.614Z,20.85
2022-10-19T13:23:07.340Z,20.74
2022-10-19T13:25:41.596Z,20.96
2022-10-19T13:28:09.415Z,21.19
2022-10-19T13:30:36.210Z,21.34
2022-10-19T13:33:24.998Z,21.38
2022-10-19T13:36:01.074Z,21.34
2022-10-19T13:38:34.088Z,21.00
2022-10-19T13:41:21.524Z,20.70
2022-10-19T13:44:22.360Z,20.34
2022-10-19T13:46:55.027Z,20.57
2022-10-19T13:50:06.490Z,20.46
2022-10-19T13:52:42.480Z,20.34
2022-10-19T13:55:21.996Z,20.29
2022-10-19T13:58:14.255Z,20.19
2022-10-19T14:00:47.074Z,19.98
2022-10-19T14:03:51.114Z,20.02
2022-10-19T14:06:24.803Z,20.22
2022-10-19T14:09:31.831Z,20.07
2022-10-19T14:12:15.598Z,20.05
2022-10-19T14:14:44.382Z,20.02
2022-10-19T14:19:52.458Z,20.07
2022-10-19T14:22:26.628Z,19.92
2022-10-19T14:25:03.160Z,19.80
2022-10-19T14:27:31.671Z,19.54
2022-10-19T14:29:58.933Z,19.47
2022-10-19T14:32:28.627Z,19.52
2022-10-19T14:35:00.462Z,19.54
2022-10-19T14:37:27.608Z,19.58
2022-10-19T14:40:26.636Z,19.56
2022-10-19T14:42:55.473Z,19.43
2022-10-19T14:45:25.595Z,19.40
2022-10-19T14:47:52.441Z,19.41
2022-10-19T14:50:22.277Z,19.33
2022-10-19T14:52:52.786Z,19.37
2022-10-19T14:55:21.075Z,19.49
2022-10-19T14:57:50.429Z,19.61
2022-10-19T15:00:23.485Z,19.77
2022-10-19T15:03:04.017Z,19.69
2022-10-19T15:05:34.814Z,19.88
2022-10-19T15:08:21.993Z,19.74
2022-10-19T15:10:49.931Z,19.85
2022-10-19T15:13:30.994Z,19.96
2022-10-19T15:15:58.105Z,19.94
2022-10-19T15:18:44.369Z,19.89
2022-10-19T15:21:18.722Z,19.77
2022-10-19T15:23:47.975Z,19.72
2022-10-19T15:26:17.645Z,19.64
2022-10-19T15:28:45.354Z,19.76
2022-10-19T15:31:24.278Z,19.77
2022-10-19T15:33:55.111Z,19.74
2022-10-19T15:36:23.612Z,19.78
2022-10-19T15:39:11.471Z,19.60
2022-10-19T15:41:46.930Z,19.60
2022-10-19T15:44:42.318Z,19.45
2022-10-19T15:47:14.859Z,19.53
2022-10-19T15:49:41.573Z,19.54
2022-10-19T15:52:23.299Z,19.56
2022-10-19T15:54:51.905Z,19.53
2022-10-19T15:57:32.231Z,19.42
2022-10-19T16:00:06.933Z,19.48
2022-10-19T16:02:33.773Z,19.48
2022-10-19T16:05:00.640Z,19.36
2022-10-19T16:07:30.524Z,19.32
2022-10-19T16:09:57.645Z,19.23
2022-10-19T16:12:26.402Z,19.24
2022-10-19T16:14:54.245Z,19.20
2022-10-19T16:17:21.296Z,19.29
2022-10-19T16:19:48.358Z,19.36
2022-10-19T16:22:15.554Z,19.09
2022-10-19T16:24:43.385Z,19.13
2022-10-19T16:27:14.447Z,19.08
2022-10-19T16:29:42.437Z,19.08
2022-10-19T16:32:09.802Z,19.15
2022-10-19T16:34:36.626Z,18.95
2022-10-19T16:37:05.934Z,19.05
2022-10-19T16:39:34.027Z,18.96
2022-10-19T16:42:00.743Z,18.92
2022-10-19T16:44:27.483Z,18.85
2022-10-19T16:46:57.311Z,18.83
2022-10-19T16:49:24.241Z,18.84
2022-10-19T16:51:53.332Z,18.94
2022-10-19T16:54:23.913Z,18.93
2022-10-19T16:56:50.656Z,18.80
2022-10-19T16:59:19.088Z,18.68
2022-10-19T17:01:47.112Z,18.58
2022-10-19T17:04:15.811Z,18.44
2022-10-19T17:06:43.605Z,18.32
2022-10-19T17:11:57.257Z,18.17
2022-10-19T17:14:24.056Z,18.06
2022-10-19T17:16:50.745Z,17.73
2022-10-19T17:19:17.620Z,17.43
2022-10-19T17:21:44.491Z,17.17
2022-10-19T17:24:21.175Z,16.96
2022-10-19T17:26:50.914Z,16.87
2022-10-19T17:29:18.833Z,16.74
2022-10-19T17:31:45.982Z,16.68
2022-10-19T17:34:12.887Z,16.70
2022-10-19T17:36:42.085Z,16.67
2022-10-19T17:39:13.449Z,16.61
2022-10-19T17:41:40.131Z,16.61
2022-10-19T17:44:06.862Z,16.63
2022-10-19T17:46:35.545Z,16.59
2022-10-19T17:49:02.587Z,16.69
2022-10-19T17:51:30.983Z,16.58
2022-10-19T17:54:00.752Z,16.70
2022-10-19T17:56:28.459Z,16.63
2022-10-19T17:58:56.742Z,16.52
2022-10-19T18:01:24.409Z,16.53
2022-10-19T18:03:51.171Z,16.43
2022-10-19T18:06:23.778Z,16.38
2022-10-19T18:08:53.611Z,16.40
2022-10-19T18:11:26.372Z,16.41
2022-10-19T18:13:56.105Z,16.41
2022-10-19T18:16:25.550Z,16.47
2022-10-19T18:18:55.244Z,16.48
2022-10-19T18:21:25.462Z,16.55
2022-10-19T18:23:53.829Z,16.53
2022-10-19T18:26:24.415Z,16.47
2022-10-19T18:28:53.113Z,16.49
2022-10-19T18:31:22.870Z,16.47
2022-10-19T18:33:55.310Z,16.46
2022-10-19T18:36:22.225Z,16.44
2022-10-19T18:38:53.679Z,16.50
2022-10-19T18:41:26.255Z,16.45
2022-10-19T18:43:55.292Z,16.46
2022-10-19T18:46:23.701Z,16.33
2022-10-19T18:48:50.750Z,16.35
2022-10-19T18:51:19.236Z,16.29
2022-10-19T18:53:47.466Z,16.31
2022-10-19T18:56:16.735Z,16.31
2022-10-19T18:58:44.353Z,16.22
2022-10-19T19:01:28.119Z,16.21
2022-10-19T19:03:57.454Z,16.19
2022-10-19T19:06:29.950Z,16.15
2022-10-19T19:08:58.905Z,16.18
2022-10-19T19:11:34.322Z,16.14
2022-10-19T19:14:07.091Z,16.14
2022-10-19T19:16:36.541Z,16.24
2022-10-19T19:19:04.395Z,16.27
2022-10-19T19:21:32.845Z,16.17
2022-10-19T19:24:02.346Z,16.18
2022-10-19T19:26:32.463Z,16.08
2022-10-19T19:28:59.239Z,15.87
2022-10-19T19:31:26.251Z,16.03
2022-10-19T19:33:53.010Z,16.02
2022-10-19T19:36:19.988Z,16.06
2022-10-19T19:38:49.130Z,16.19
2022-10-19T19:41:16.648Z,16.21
2022-10-19T19:43:44.147Z,16.17
2022-10-19T19:46:17.341Z,16.20
2022-10-19T19:48:46.310Z,16.17
2022-10-19T19:51:18.564Z,16.11
2022-10-19T19:53:46.154Z,16.04
2022-10-19T19:56:14.742Z,16.11
2022-10-19T19:58:43.005Z,16.20
2022-10-19T20:01:12.435Z,16.13
2022-10-19T20:03:41.276Z,16.10
2022-10-19T20:06:08.358Z,16.09
2022-10-19T20:08:36.441Z,16.02
2022-10-19T20:11:09.382Z,16.02
2022-10-19T20:13:36.293Z,16.07
2022-10-19T20:16:14.398Z,16.01
2022-10-19T20:18:45.016Z,15.95
2022-10-19T20:21:11.923Z,15.94
2022-10-19T20:23:38.940Z,15.94
2022-10-19T20:26:05.864Z,15.95
2022-10-19T20:28:33.602Z,15.87
2022-10-19T20:31:05.715Z,15.82
2022-10-19T20:33:34.347Z,15.74
2022-10-19T20:36:06.759Z,15.80
2022-10-19T20:38:34.977Z,15.84
2022-10-19T20:41:08.223Z,15.79
2022-10-19T20:43:38.580Z,15.78
2022-10-19T20:46:05.709Z,15.55
2022-10-19T20:48:33.256Z,15.75
2022-10-19T20:51:14.390Z,15.74
2022-10-19T20:53:45.346Z,15.78
2022-10-19T20:56:15.056Z,15.84
2022-10-19T20:58:43.720Z,15.85
2022-10-19T21:01:16.400Z,15.83
2022-10-19T21:03:48.192Z,15.88
2022-10-19T21:06:15.548Z,15.90
2022-10-19T21:08:42.828Z,15.86
2022-10-19T21:11:21.232Z,15.84
2022-10-19T21:13:48.638Z,16.00
2022-10-19T21:16:18.884Z,16.01
2022-10-19T21:18:48.527Z,16.03
2022-10-19T21:21:24.570Z,16.03
2022-10-19T21:23:55.281Z,16.16
2022-10-19T21:26:24.428Z,16.15
2022-10-19T21:28:53.227Z,16.09
2022-10-19T21:31:21.803Z,16.30
2022-10-19T21:33:48.901Z,16.30
2022-10-19T21:36:16.092Z,16.33
2022-10-19T21:38:43.268Z,16.34
2022-10-19T21:41:20.982Z,16.34
2022-10-19T21:43:50.817Z,16.23
2022-10-19T21:46:20.029Z,16.20
2022-10-19T21:48:47.318Z,16.25
2022-10-19T21:51:21.775Z,16.26
2022-10-19T21:53:48.685Z,16.27
2022-10-19T21:56:16.272Z,16.23
2022-10-19T21:58:47.009Z,16.18
2022-10-19T22:01:14.479Z,16.17
2022-10-19T22:03:41.267Z,16.13
2022-10-19T22:06:08.066Z,16.15
2022-10-19T22:08:34.883Z,16.10
2022-10-19T22:11:20.089Z,15.99
2022-10-19T22:13:47.098Z,16.09
2022-10-19T22:16:17.141Z,16.05
2022-10-19T22:18:44.274Z,15.78
2022-10-19T22:21:14.614Z,15.89
2022-10-19T22:23:42.571Z,15.87
2022-10-19T22:26:14.285Z,15.91
2022-10-19T22:28:41.418Z,15.94
2022-10-19T22:31:08.597Z,15.98
2022-10-19T22:33:35.720Z,15.99
2022-10-19T22:36:06.287Z,15.88
2022-10-19T22:38:34.298Z,15.93
2022-10-19T22:41:01.129Z,15.94
2022-10-19T22:43:27.846Z,15.88
2022-10-19T22:45:54.611Z,15.92
2022-10-19T22:48:21.436Z,15.95
2022-10-19T22:50:48.168Z,15.83
2022-10-19T22:53:14.875Z,15.88
2022-10-19T22:55:41.662Z,15.85
2022-10-19T22:58:09.297Z,15.82
2022-10-19T23:00:36.560Z,15.85
2022-10-19T23:03:03.742Z,15.82
2022-10-19T23:05:30.453Z,15.80
2022-10-19T23:07:57.245Z,15.81
2022-10-19T23:10:24.273Z,15.75
2022-10-19T23:12:52.082Z,15.63
2022-10-19T23:15:19.724Z,15.60
2022-10-19T23:17:47.069Z,15.69
2022-10-19T23:20:14.464Z,15.71
2022-10-19T23:22:41.233Z,15.66
2022-10-19T23:25:08.798Z,15.56
2022-10-19T23:27:35.815Z,15.62
2022-10-19T23:30:03.979Z,15.56
2022-10-19T23:32:30.808Z,15.53
2022-10-19T23:34:57.506Z,15.52
2022-10-19T23:37:24.380Z,15.53
2022-10-19T23:39:51.177Z,15.53
2022-10-19T23:42:17.980Z,15.54
2022-10-19T23:44:44.747Z,15.65
2022-10-19T23:47:11.589Z,15.72
2022-10-19T23:49:38.269Z,15.71
2022-10-19T23:52:05.168Z,15.64
2022-10-19T23:54:32.012Z,15.58
2022-10-19T23:56:58.861Z,15.58
2022-10-19T23:59:25.671Z,15.58
